Time;durP1;ratioP1;P1;durP2;ratioP2;P2;SDS_P1;SDS_P2;PMS_P1;PMS_P2;Temp;Humidity;BMP_temperature;BMP_pressure;BME280_temperature;BME280_humidity;BME280_pressure;Samples;Min_cycle;Max_cycle;Signal;HPM_P1;HPM_P2
2023/01/18 00:00:39;;;;;;;29.90;14.90;;;;;;;-1.93;100.00;99024.50;5023548;28;20037;-71
2023/01/18 00:03:07;;;;;;;32.60;16.35;;;;;;;-1.93;100.00;99027.94;5023077;28;20558;-71
2023/01/18 00:05:33;;;;;;;34.92;15.13;;;;;;;-1.87;100.00;99032.91;5024350;28;20056;-71
2023/01/18 00:07:58;;;;;;;33.17;14.98;;;;;;;-2.12;100.00;99037.44;5024043;28;20500;-71
2023/01/18 00:10:24;;;;;;;30.10;14.27;;;;;;;-1.84;100.00;99026.72;5023141;28;20035;-71
2023/01/18 00:12:49;;;;;;;38.33;14.90;;;;;;;-1.83;100.00;99026.66;5015309;28;20053;-71
2023/01/18 00:15:15;;;;;;;26.90;14.77;;;;;;;-1.69;100.00;99026.06;5005034;28;20034;-72
2023/01/18 00:17:50;;;;;;;28.70;14.88;;;;;;;-1.63;100.00;99027.56;4995244;28;20112;-71
2023/01/18 00:20:17;;;;;;;28.70;15.32;;;;;;;-1.68;100.00;99029.53;5023545;28;20077;-71
2023/01/18 00:22:43;;;;;;;28.63;14.77;;;;;;;-1.59;100.00;99031.75;5023008;28;20540;-71
2023/01/18 00:25:09;;;;;;;31.17;15.68;;;;;;;-1.67;100.00;99026.84;5016931;28;20045;-71
2023/01/18 00:27:44;;;;;;;36.90;14.63;;;;;;;-1.64;100.00;99031.09;5023388;28;20033;-71
2023/01/18 00:30:13;;;;;;;32.42;15.13;;;;;;;-1.61;100.00;99033.56;5011121;28;20144;-71
2023/01/18 00:32:39;;;;;;;36.42;16.77;;;;;;;-1.73;100.00;99042.78;5004164;28;20371;-71
2023/01/18 00:35:06;;;;;;;31.48;16.08;;;;;;;-1.67;100.00;99036.44;5023623;28;20071;-71
2023/01/18 00:37:35;;;;;;;36.50;16.00;;;;;;;-1.66;100.00;99038.13;5023637;28;20572;-71
2023/01/18 00:40:03;;;;;;;36.15;16.42;;;;;;;-1.63;100.00;99038.00;5019687;28;20407;-71
2023/01/18 00:45:13;;;;;;;35.70;16.85;;;;;;;-1.64;100.00;99037.16;5024438;28;20577;-71
2023/01/18 00:47:38;;;;;;;32.03;17.05;;;;;;;-1.53;100.00;99034.09;5024583;28;20125;-70
2023/01/18 00:50:05;;;;;;;29.10;15.13;;;;;;;-1.71;100.00;99034.88;5023663;28;20120;-71
2023/01/18 00:52:30;;;;;;;40.92;16.00;;;;;;;-1.57;100.00;99032.50;5024628;28;20466;-70
2023/01/18 00:54:55;;;;;;;31.08;16.17;;;;;;;-1.71;100.00;99040.09;5006550;28;20068;-71
2023/01/18 00:57:21;;;;;;;32.78;15.18;;;;;;;-1.75;100.00;99033.31;5024095;28;20828;-71
2023/01/18 00:59:46;;;;;;;35.53;16.42;;;;;;;-1.59;100.00;99040.44;5023316;28;20037;-71
2023/01/18 01:02:13;;;;;;;35.22;16.15;;;;;;;-1.57;100.00;99040.34;5024454;28;20037;-71
2023/01/18 01:07:22;;;;;;;41.42;15.10;;;;;;;-2.02;100.00;99045.75;5010876;28;20067;-71
2023/01/18 01:09:48;;;;;;;28.38;14.10;;;;;;;-1.97;100.00;99041.19;5005771;28;20561;-71
2023/01/18 01:26:12;;;;;;;36.72;15.35;;;;;;;-1.69;100.00;99044.34;5016071;28;20052;-71
2023/01/18 01:28:45;;;;;;;36.58;16.33;;;;;;;-1.78;100.00;99049.13;5022848;28;20115;-71
2023/01/18 01:31:13;;;;;;;32.70;15.73;;;;;;;-1.82;100.00;99048.38;5023092;28;20052;-71
2023/01/18 01:33:39;;;;;;;39.22;16.45;;;;;;;-1.84;100.00;99048.47;5016420;28;20040;-71
2023/01/18 01:36:13;;;;;;;30.98;15.02;;;;;;;-1.79;100.00;99057.88;5012979;28;20041;-71
2023/01/18 01:38:42;;;;;;;35.17;16.23;;;;;;;-1.68;100.00;99053.03;5022740;28;20045;-71
2023/01/18 01:41:13;;;;;;;37.05;16.42;;;;;;;-1.65;100.00;99053.75;5022565;28;20071;-71
2023/01/18 01:43:51;;;;;;;34.67;16.55;;;;;;;-1.56;100.00;99057.72;5022402;28;20056;-71
2023/01/18 01:46:44;;;;;;;30.95;14.93;;;;;;;-1.52;100.00;99061.91;5022528;28;20487;-71
2023/01/18 01:49:14;;;;;;;;;;;;;;;-1.41;100.00;99057.06;5022827;28;20486;-71
2023/01/18 01:51:50;;;;;;;28.75;14.88;;;;;;;-1.38;100.00;99062.19;5022769;28;20381;-71
2023/01/18 01:54:21;;;;;;;28.23;14.35;;;;;;;-1.41;100.00;99062.28;5023330;28;20067;-71
2023/01/18 01:56:51;;;;;;;33.38;16.77;;;;;;;-1.66;100.00;99062.50;5016954;28;20037;-71
2023/01/18 01:59:17;;;;;;;33.75;15.18;;;;;;;-1.65;100.00;99064.22;5005211;28;20483;-71
2023/01/18 02:01:45;;;;;;;43.50;15.57;;;;;;;-1.75;100.00;99082.97;5022780;28;20060;-71
2023/01/18 02:04:11;;;;;;;32.08;16.05;;;;;;;-1.89;100.00;99076.53;5023193;28;20044;-71
2023/01/18 02:06:38;;;;;;;33.55;16.58;;;;;;;-1.75;100.00;99081.19;5009859;28;20049;-73
2023/01/18 02:09:07;;;;;;;34.25;15.55;;;;;;;-1.87;100.00;99092.13;5023209;28;20025;-71
2023/01/18 02:11:34;;;;;;;29.95;14.27;;;;;;;-2.09;100.00;99086.94;5023090;28;20382;-71
2023/01/18 02:14:03;;;;;;;32.15;15.35;;;;;;;-2.04;100.00;99081.53;5012664;28;20049;-71
2023/01/18 02:17:12;;;;;;;29.95;14.23;;;;;;;-1.75;100.00;99089.03;5022882;28;20485;-72
2023/01/18 02:19:37;;;;;;;29.90;14.55;;;;;;;-2.00;100.00;99081.34;5022829;28;20148;-72
2023/01/18 02:22:10;;;;;;;32.50;15.65;;;;;;;-2.19;100.00;99077.78;5011229;28;20049;-71
2023/01/18 02:24:51;;;;;;;26.85;13.98;;;;;;;-2.13;100.00;99088.81;5017327;28;20042;-71
2023/01/18 02:27:21;;;;;;;32.53;15.70;;;;;;;-2.42;100.00;99084.75;5018929;28;20191;-71
2023/01/18 02:29:52;;;;;;;33.25;15.55;;;;;;;-2.32;100.00;99084.38;5022176;28;20038;-71
2023/01/18 02:32:21;;;;;;;26.08;13.77;;;;;;;-2.41;100.00;99090.81;5021263;28;20068;-71
2023/01/18 02:34:49;;;;;;;30.50;14.30;;;;;;;-2.28;100.00;99093.81;5019686;28;20037;-71
2023/01/18 02:37:41;;;;;;;36.50;15.07;;;;;;;-2.17;100.00;99096.84;5016799;28;20065;-71
2023/01/18 02:40:21;;;;;;;33.75;13.93;;;;;;;-2.21;100.00;99093.50;5021973;28;20087;-71
2023/01/18 02:48:36;;;;;;;29.38;14.63;;;;;;;-2.13;100.00;99106.25;5011447;28;20037;-71
2023/01/18 02:51:02;;;;;;;29.90;13.45;;;;;;;-2.14;100.00;99105.41;5021965;28;20129;-71
2023/01/18 02:53:29;;;;;;;29.38;12.52;;;;;;;-2.10;100.00;99106.13;5022565;28;20112;-71
2023/01/18 02:56:00;;;;;;;27.88;14.05;;;;;;;-1.99;100.00;99109.16;5022335;28;20038;-71
2023/01/18 02:58:37;;;;;;;29.40;12.73;;;;;;;-2.12;100.00;99102.72;4998328;28;20062;-71
2023/01/18 03:01:10;;;;;;;31.23;15.57;;;;;;;-2.19;100.00;99106.50;5022111;28;20037;-71
2023/01/18 03:03:37;;;;;;;25.40;14.27;;;;;;;-2.19;100.00;99102.13;5022334;28;20136;-71
2023/01/18 03:06:06;;;;;;;33.15;14.82;;;;;;;-2.14;100.00;99094.09;5016317;28;20141;-71
2023/01/18 03:08:43;;;;;;;27.65;14.77;;;;;;;-2.18;100.00;99101.22;5016495;28;20815;-71
2023/01/18 03:11:46;;;;;;;29.45;14.43;;;;;;;-2.04;100.00;99099.81;5009858;28;20083;-71
2023/01/18 03:14:41;;;;;;;24.38;14.02;;;;;;;-2.09;100.00;99103.47;5005609;28;20050;-71
2023/01/18 03:17:35;;;;;;;35.97;14.60;;;;;;;-2.19;100.00;99106.50;5002123;28;20061;-71
2023/01/18 03:20:08;;;;;;;32.50;14.30;;;;;;;-2.33;100.00;99106.19;5010907;28;20050;-71
2023/01/18 03:25:33;;;;;;;31.02;13.90;;;;;;;-2.38;100.00;99109.81;5020673;28;20049;-71
2023/01/18 03:33:45;;;;;;;32.25;14.25;;;;;;;-2.30;100.00;99119.97;5009757;28;20410;-71
2023/01/18 03:36:16;;;;;;;28.23;13.80;;;;;;;-2.26;100.00;99120.69;5019014;28;20041;-71
2023/01/18 03:38:46;;;;;;;28.08;14.05;;;;;;;-2.25;100.00;99120.63;5019167;28;20790;-71
2023/01/18 03:41:14;;;;;;;29.13;14.23;;;;;;;-2.32;100.00;99116.56;5016560;28;20466;-71
2023/01/18 03:43:41;;;;;;;30.90;14.90;;;;;;;-2.38;100.00;99122.00;5008546;28;20049;-71
2023/01/18 03:46:07;;;;;;;30.15;15.30;;;;;;;-2.52;100.00;99124.28;5024474;28;20123;-71
2023/01/18 03:48:35;;;;;;;28.73;14.63;;;;;;;-2.73;100.00;99131.16;5019480;28;20441;-71
2023/01/18 03:51:21;;;;;;;29.42;14.43;;;;;;;-2.85;100.00;99129.03;5018574;28;20041;-71
2023/01/18 03:53:49;;;;;;;30.33;14.73;;;;;;;-2.81;100.00;99136.69;5014116;28;20045;-72
2023/01/18 03:56:23;;;;;;;26.55;13.52;;;;;;;-2.90;100.00;99140.47;5025818;28;20059;-71
2023/01/18 03:58:53;;;;;;;31.58;14.55;;;;;;;-3.05;100.00;99135.81;5013001;28;20048;-71
2023/01/18 04:01:18;;;;;;;28.98;15.05;;;;;;;-2.82;100.00;99148.00;5023048;28;20045;-71
2023/01/18 04:03:44;;;;;;;28.75;14.60;;;;;;;-2.85;100.00;99142.91;5023007;28;20041;-71
2023/01/18 04:06:09;;;;;;;28.73;16.45;;;;;;;-2.75;100.00;99149.50;5006750;28;20097;-71
2023/01/18 04:08:34;;;;;;;27.27;14.63;;;;;;;-2.84;100.00;99148.97;5021095;28;20040;-71
2023/01/18 04:11:00;;;;;;;27.52;14.68;;;;;;;-2.75;100.00;99154.72;5024240;28;20033;-74
2023/01/18 04:13:25;;;;;;;36.45;15.10;;;;;;;-2.74;100.00;99152.94;5023718;28;20050;-71
2023/01/18 04:15:51;;;;;;;26.08;14.02;;;;;;;-2.71;100.00;99152.81;5024462;28;20030;-71
2023/01/18 04:18:16;;;;;;;32.10;15.18;;;;;;;-2.67;100.00;99160.47;5018032;28;20651;-72
2023/01/18 04:20:41;;;;;;;33.53;14.32;;;;;;;-2.57;100.00;99154.94;5024334;28;20042;-71
2023/01/18 04:23:07;;;;;;;32.60;15.48;;;;;;;-2.54;100.00;99158.28;5019474;28;20140;-71
2023/01/18 04:25:32;;;;;;;31.88;15.50;;;;;;;-2.48;100.00;99154.59;5020114;28;20072;-71
2023/01/18 04:27:58;;;;;;;32.28;15.20;;;;;;;-2.63;100.00;99150.78;5003391;28;20801;-71
2023/01/18 04:30:23;;;;;;;28.48;15.25;;;;;;;-2.56;100.00;99144.47;5007450;28;20042;-71
2023/01/18 04:32:48;;;;;;;28.90;15.18;;;;;;;-2.68;100.00;99150.97;5024511;28;20045;-71
2023/01/18 04:35:14;;;;;;;35.83;14.05;;;;;;;-2.66;100.00;99154.38;5024923;28;20153;-71
2023/01/18 04:37:40;;;;;;;33.35;15.73;;;;;;;-2.83;100.00;99148.91;5024420;28;20029;-71
2023/01/18 04:40:06;;;;;;;33.08;15.32;;;;;;;-2.65;100.00;99156.06;5024724;28;20042;-71
2023/01/18 04:42:32;;;;;;;27.98;14.68;;;;;;;-2.59;100.00;99162.81;5023629;28;20064;-71
2023/01/18 04:44:58;;;;;;;26.17;14.48;;;;;;;-2.64;100.00;99162.16;5010259;28;20041;-71
2023/01/18 04:47:24;;;;;;;27.88;14.75;;;;;;;-2.80;100.00;99172.28;5024074;28;20033;-71
2023/01/18 04:49:50;;;;;;;28.13;14.63;;;;;;;-2.62;100.00;99169.00;5024469;28;20034;-71
2023/01/18 04:52:15;;;;;;;37.17;14.70;;;;;;;-2.72;100.00;99174.59;5015786;28;20120;-71
2023/01/18 04:54:40;;;;;;;29.38;15.02;;;;;;;-2.94;100.00;99172.78;5018274;28;20026;-73
2023/01/18 04:57:06;;;;;;;29.60;15.05;;;;;;;-3.00;100.00;99178.22;5008968;28;20770;-70
2023/01/18 04:59:33;;;;;;;35.35;17.20;;;;;;;-2.65;100.00;99170.88;5010281;28;20049;-71
2023/01/18 05:01:59;;;;;;;32.58;15.45;;;;;;;-2.72;100.00;99175.44;5024643;28;20033;-71
2023/01/18 05:04:25;;;;;;;30.38;14.95;;;;;;;-2.90;100.00;99171.75;5024480;28;20398;-71
2023/01/18 05:06:51;;;;;;;29.00;15.23;;;;;;;-2.79;100.00;99173.97;5024727;28;20552;-71
2023/01/18 05:09:16;;;;;;;28.20;15.02;;;;;;;-3.02;100.00;99174.78;5019253;28;20073;-71
2023/01/18 05:11:43;;;;;;;34.35;16.52;;;;;;;-2.97;100.00;99179.84;5018424;28;20057;-72
2023/01/18 05:14:08;;;;;;;29.58;15.45;;;;;;;-2.92;100.00;99181.38;5005690;28;20392;-71
2023/01/18 05:16:34;;;;;;;30.00;15.40;;;;;;;-2.91;100.00;99184.88;5023672;28;20044;-71
2023/01/18 05:19:02;;;;;;;31.88;16.80;;;;;;;-3.09;100.00;99194.16;5011621;28;20055;-71
2023/01/18 05:21:27;;;;;;;33.28;16.58;;;;;;;-3.15;100.00;99192.63;5023770;28;20041;-71
2023/01/18 05:23:53;;;;;;;34.60;17.35;;;;;;;-3.02;100.00;99190.44;5019029;28;20058;-71
2023/01/18 05:26:21;;;;;;;37.38;17.08;;;;;;;-2.98;100.00;99199.00;5023035;28;20144;-71
2023/01/18 05:28:48;;;;;;;36.13;17.35;;;;;;;-3.07;100.00;99201.91;5004610;28;20041;-71
2023/01/18 05:31:19;;;;;;;29.38;16.75;;;;;;;-2.76;100.00;99205.19;5022702;28;20144;-71
2023/01/18 05:33:45;;;;;;;32.70;16.38;;;;;;;-2.87;100.00;99209.91;5023005;28;20851;-71
2023/01/18 05:36:11;;;;;;;35.38;16.50;;;;;;;-2.74;100.00;99208.56;5000482;28;20053;-71
2023/01/18 05:38:36;;;;;;;32.67;15.23;;;;;;;-2.79;100.00;99214.88;5014771;28;20075;-71
2023/01/18 05:41:01;;;;;;;34.65;15.35;;;;;;;-2.93;100.00;99212.72;5023049;28;20068;-71
2023/01/18 05:43:27;;;;;;;31.38;14.82;;;;;;;-3.06;100.00;99214.94;5018849;28;20164;-71
2023/01/18 05:45:53;;;;;;;35.78;15.32;;;;;;;-2.81;100.00;99217.53;4999055;28;20044;-71
2023/01/18 05:48:19;;;;;;;37.10;17.40;;;;;;;-2.82;100.00;99230.59;5023139;28;20769;-71
2023/01/18 05:50:46;;;;;;;43.65;16.52;;;;;;;-2.85;100.00;99225.53;5022837;28;20390;-72
2023/01/18 05:53:14;;;;;;;29.98;14.25;;;;;;;-2.98;100.00;99223.31;5004397;28;20103;-71
2023/01/18 05:55:40;;;;;;;31.33;14.82;;;;;;;-3.05;100.00;99228.81;5023465;28;20045;-71
2023/01/18 05:58:06;;;;;;;27.50;14.38;;;;;;;-3.15;100.00;99230.88;5022486;28;20154;-72
2023/01/18 06:00:33;;;;;;;30.02;17.05;;;;;;;-3.01;100.00;99228.66;5005182;28;20506;-71
2023/01/18 06:02:59;;;;;;;28.27;14.55;;;;;;;-2.97;100.00;99239.81;5023439;28;20167;-72
2023/01/18 06:05:25;;;;;;;36.13;16.73;;;;;;;-2.89;100.00;99238.66;5014049;28;20044;-71
2023/01/18 06:07:51;;;;;;;31.17;14.68;;;;;;;-2.93;100.00;99242.25;5022246;28;20190;-71
2023/01/18 06:10:17;;;;;;;36.00;15.52;;;;;;;-2.92;100.00;99241.34;5029088;28;20088;-72
2023/01/18 06:12:43;;;;;;;34.30;14.73;;;;;;;-2.68;100.00;99242.25;5030304;28;20042;-71
2023/01/18 06:15:09;;;;;;;31.33;15.27;;;;;;;-2.77;100.00;99239.97;5021973;28;20053;-72
2023/01/18 06:17:35;;;;;;;35.80;15.45;;;;;;;-2.62;100.00;99241.19;5003856;28;20033;-71
2023/01/18 06:20:01;;;;;;;31.52;15.32;;;;;;;-2.52;100.00;99247.78;5024515;28;20490;-71
2023/01/18 06:22:26;;;;;;;32.03;15.27;;;;;;;-2.51;100.00;99244.28;5023439;28;20569;-71
2023/01/18 06:24:54;;;;;;;35.95;14.65;;;;;;;-2.50;100.00;99245.13;5020088;28;20042;-72
2023/01/18 06:27:20;;;;;;;38.63;15.30;;;;;;;-2.58;100.00;99250.63;5024891;28;20519;-71
2023/01/18 06:29:45;;;;;;;35.88;14.48;;;;;;;-2.72;100.00;99260.69;5029374;28;20167;-71
2023/01/18 06:32:10;;;;;;;43.15;17.08;;;;;;;-2.72;100.00;99263.28;5016258;28;20080;-71
2023/01/18 06:34:43;;;;;;;32.50;14.77;;;;;;;-2.57;100.00;99259.28;5020615;28;20033;-71
2023/01/18 06:37:09;;;;;;;40.85;15.18;;;;;;;-2.58;100.00;99261.06;5013646;28;20139;-71
2023/01/18 06:39:35;;;;;;;32.00;15.02;;;;;;;-2.50;100.00;99266.00;5021188;28;20512;-71
2023/01/18 06:42:02;;;;;;;32.10;15.63;;;;;;;-2.45;100.00;99264.09;5021287;28;20037;-71
2023/01/18 06:44:28;;;;;;;31.58;15.75;;;;;;;-2.57;100.00;99262.75;4993743;28;20041;-71
2023/01/18 06:46:53;;;;;;;28.55;14.60;;;;;;;-2.59;100.00;99269.78;5021467;28;20052;-71
2023/01/18 06:49:18;;;;;;;30.88;14.73;;;;;;;-2.43;100.00;99275.31;5001651;28;20125;-72
2023/01/18 06:51:44;;;;;;;32.75;15.50;;;;;;;-2.32;100.00;99281.00;5019530;28;20033;-72
2023/01/18 06:54:09;;;;;;;29.08;15.40;;;;;;;-2.39;100.00;99282.13;5015944;28;20135;-72
2023/01/18 06:56:35;;;;;;;34.95;15.77;;;;;;;-2.45;100.00;99292.78;4994003;28;20041;-71
2023/01/18 06:59:00;;;;;;;38.90;15.95;;;;;;;-2.49;100.00;99297.25;5021311;28;20042;-71
2023/01/18 07:01:26;;;;;;;34.35;16.02;;;;;;;-2.36;100.00;99293.31;5019375;28;20045;-72
2023/01/18 07:03:53;;;;;;;37.92;16.77;;;;;;;-2.32;100.00;99299.25;5018095;28;20410;-72
2023/01/18 07:06:19;;;;;;;35.90;18.10;;;;;;;-2.44;100.00;99297.09;5032149;28;20037;-71
2023/01/18 07:08:44;;;;;;;38.17;17.65;;;;;;;-2.24;100.00;99306.84;5025266;28;20315;-71
2023/01/18 07:11:11;;;;;;;39.05;17.33;;;;;;;-2.42;100.00;99311.78;5023074;28;20033;-72
2023/01/18 07:13:42;;;;;;;46.30;19.63;;;;;;;-2.27;100.00;99318.22;5025368;28;20077;-72
2023/01/18 07:16:16;;;;;;;44.25;20.20;;;;;;;-2.07;100.00;99322.72;5026944;28;20045;-71
2023/01/18 07:18:44;;;;;;;43.67;20.15;;;;;;;-2.20;100.00;99329.31;5022849;28;20056;-72
2023/01/18 07:21:10;;;;;;;46.90;20.35;;;;;;;-2.12;100.00;99329.88;5017261;28;20065;-72
2023/01/18 07:23:38;;;;;;;35.85;18.48;;;;;;;-1.88;100.00;99328.13;5025018;28;20048;-72
2023/01/18 07:26:15;;;;;;;51.30;19.42;;;;;;;-1.82;100.00;99333.97;5024206;28;20044;-72
2023/01/18 07:28:40;;;;;;;43.88;20.25;;;;;;;-1.67;100.00;99331.69;5006005;28;20149;-71
2023/01/18 07:31:07;;;;;;;36.40;19.45;;;;;;;-1.80;100.00;99340.91;5023926;28;20045;-71
2023/01/18 07:33:33;;;;;;;39.22;19.85;;;;;;;-1.87;100.00;99342.88;5016845;28;20049;-71
2023/01/18 07:35:58;;;;;;;38.85;19.05;;;;;;;-1.80;100.00;99339.16;5024965;28;20053;-71
2023/01/18 07:38:24;;;;;;;37.38;16.30;;;;;;;-1.80;100.00;99340.91;5012978;28;20035;-72
2023/01/18 07:40:50;;;;;;;33.28;17.83;;;;;;;-2.13;100.00;99344.69;5033294;28;20110;-72
2023/01/18 07:43:18;;;;;;;35.80;17.58;;;;;;;-1.98;100.00;99347.66;5013968;28;20145;-72
2023/01/18 07:45:52;;;;;;;35.13;17.83;;;;;;;-2.04;100.00;99348.75;5035250;28;20033;-71
2023/01/18 07:48:17;;;;;;;40.47;17.80;;;;;;;-1.95;100.00;99355.41;5015840;28;20033;-71
2023/01/18 07:50:43;;;;;;;33.10;17.05;;;;;;;-2.07;100.00;99354.06;5022865;28;20460;-72
2023/01/18 07:53:08;;;;;;;35.08;16.77;;;;;;;-1.94;100.00;99347.50;5021645;28;20037;-72
2023/01/18 07:55:34;;;;;;;36.10;15.50;;;;;;;-1.86;100.00;99357.66;5014634;28;20665;-72
2023/01/18 07:58:00;;;;;;;31.73;16.52;;;;;;;-1.88;100.00;99359.47;5018184;28;20048;-71
2023/01/18 08:00:29;;;;;;;36.67;18.35;;;;;;;-1.92;100.00;99361.34;5025323;28;20178;-71
2023/01/18 08:02:54;;;;;;;33.33;16.20;;;;;;;-1.95;100.00;99355.41;5023691;28;20044;-71
2023/01/18 08:05:22;;;;;;;31.70;16.55;;;;;;;-1.93;100.00;99358.78;5016644;28;20029;-71
2023/01/18 08:07:54;;;;;;;40.22;19.25;;;;;;;-1.86;100.00;99361.13;5025268;28;20108;-72
2023/01/18 08:10:20;;;;;;;33.75;16.83;;;;;;;-1.76;100.00;99361.63;5024785;28;20144;-72
2023/01/18 08:12:46;;;;;;;35.63;17.05;;;;;;;-1.85;100.00;99365.44;5023275;28;20767;-72
2023/01/18 08:15:12;;;;;;;37.05;15.82;;;;;;;-1.82;100.00;99356.63;5024173;28;20054;-71
2023/01/18 08:17:37;;;;;;;35.53;16.33;;;;;;;-1.98;100.00;99363.34;5029385;28;20037;-71
2023/01/18 08:20:04;;;;;;;36.47;16.70;;;;;;;-1.78;100.00;99376.50;5029395;28;20148;-72
2023/01/18 08:22:30;;;;;;;30.67;15.07;;;;;;;-1.80;100.00;99373.13;5024270;28;20757;-71
2023/01/18 08:24:56;;;;;;;34.17;15.25;;;;;;;-1.63;100.00;99369.88;5019194;28;20049;-72
2023/01/18 08:27:21;;;;;;;34.25;15.32;;;;;;;-1.72;100.00;99378.03;5024498;28;20033;-71
2023/01/18 08:29:47;;;;;;;32.60;15.10;;;;;;;-1.86;100.00;99387.25;5023528;28;20604;-72
2023/01/18 08:32:12;;;;;;;32.45;16.52;;;;;;;-1.58;100.00;99386.22;5017918;28;20034;-72
2023/01/18 08:34:38;;;;;;;31.25;14.93;;;;;;;-1.44;100.00;99389.19;5023786;28;20041;-71
2023/01/18 08:37:10;;;;;;;30.00;15.48;;;;;;;-1.49;100.00;99390.28;5001874;28;20115;-71
2023/01/18 08:39:36;;;;;;;29.08;15.35;;;;;;;-1.47;100.00;99391.91;5024215;28;20048;-72
2023/01/18 08:42:02;;;;;;;32.15;15.45;;;;;;;-1.35;100.00;99393.22;5022186;28;20506;-73
2023/01/18 08:44:27;;;;;;;38.67;14.02;;;;;;;-1.25;100.00;99394.56;5019720;28;20045;-72
2023/01/18 08:46:53;;;;;;;33.60;15.23;;;;;;;-1.44;100.00;99390.94;5025204;28;20111;-71
2023/01/18 08:49:18;;;;;;;28.08;13.98;;;;;;;-1.28;100.00;99391.22;5022719;28;20061;-72
2023/01/18 08:51:44;;;;;;;36.30;16.13;;;;;;;-1.19;100.00;99389.09;5011910;28;20503;-76
2023/01/18 08:54:09;;;;;;;34.03;14.93;;;;;;;-1.40;100.00;99396.00;5002867;28;20905;-72
2023/01/18 08:56:34;;;;;;;30.58;15.40;;;;;;;-1.16;100.00;99403.81;5031466;28;20111;-72
2023/01/18 08:59:01;;;;;;;37.88;16.58;;;;;;;-1.08;100.00;99406.97;5023235;28;20075;-72
2023/01/18 09:01:29;;;;;;;30.33;16.50;;;;;;;-1.03;100.00;99406.81;5019218;28;20033;-73
2023/01/18 09:03:56;;;;;;;31.90;14.98;;;;;;;-0.89;100.00;99407.97;5005166;28;20041;-71
2023/01/18 09:06:21;;;;;;;31.67;15.52;;;;;;;-0.75;100.00;99411.78;5022998;28;20043;-72
2023/01/18 09:08:47;;;;;;;37.72;17.85;;;;;;;-0.76;100.00;99423.16;5023401;28;20107;-72
2023/01/18 09:11:13;;;;;;;30.70;14.40;;;;;;;-0.93;100.00;99422.06;5022996;28;20812;-71
2023/01/18 09:13:42;;;;;;;39.38;16.27;;;;;;;-0.84;100.00;99418.25;5022401;28;20156;-71
2023/01/18 09:16:09;;;;;;;31.38;15.98;;;;;;;-0.66;100.00;99432.34;5022489;28;20073;-72
2023/01/18 09:18:37;;;;;;;35.08;17.90;;;;;;;-0.67;100.00;99436.72;5023192;28;20049;-72
2023/01/18 09:21:08;;;;;;;30.17;15.95;;;;;;;-0.49;100.00;99429.91;5022446;28;20034;-72
2023/01/18 09:23:35;;;;;;;33.88;16.13;;;;;;;-0.50;100.00;99443.03;5019830;28;20072;-71
2023/01/18 09:26:15;;;;;;;36.40;15.43;;;;;;;-0.47;100.00;99448.16;5003495;28;20045;-71
2023/01/18 09:28:42;;;;;;;26.77;13.95;;;;;;;-0.49;100.00;99450.00;5004273;28;20041;-71
2023/01/18 09:31:08;;;;;;;29.38;14.77;;;;;;;-0.23;100.00;99451.56;5020275;28;20601;-72
2023/01/18 09:33:34;;;;;;;35.22;16.08;;;;;;;-0.29;100.00;99458.75;5019147;28;20402;-72
2023/01/18 09:36:01;;;;;;;29.42;15.82;;;;;;;-0.01;100.00;99465.44;5019925;28;20029;-71
2023/01/18 09:38:29;;;;;;;30.70;15.68;;;;;;;0.01;100.00;99468.00;5021677;28;20045;-72
2023/01/18 09:40:55;;;;;;;30.67;14.80;;;;;;;0.07;100.00;99468.59;5014187;28;20848;-72
2023/01/18 09:43:28;;;;;;;32.45;14.23;;;;;;;0.26;100.00;99476.53;5026449;28;20041;-71
2023/01/18 09:45:54;;;;;;;32.28;14.52;;;;;;;0.05;100.00;99472.19;5017833;28;20060;-72
2023/01/18 09:48:28;;;;;;;30.35;14.10;;;;;;;0.16;100.00;99476.06;5021313;28;20041;-72
2023/01/18 09:50:57;;;;;;;30.10;14.73;;;;;;;0.30;100.00;99480.69;5021239;28;20033;-71
2023/01/18 09:53:55;;;;;;;26.50;13.52;;;;;;;0.36;100.00;99483.06;5018264;28;20042;-72
2023/01/18 09:56:26;;;;;;;26.27;12.85;;;;;;;0.50;100.00;99482.44;5003463;28;20505;-71
2023/01/18 09:59:04;;;;;;;28.52;14.10;;;;;;;0.51;100.00;99477.16;5022114;28;20851;-72
2023/01/18 10:01:34;;;;;;;23.92;13.90;;;;;;;0.73;100.00;99479.66;4999386;28;20044;-72
2023/01/18 10:04:14;;;;;;;31.45;16.52;;;;;;;0.88;100.00;99472.88;5001494;28;20112;-71
2023/01/18 10:07:06;;;;;;;32.38;18.15;;;;;;;1.02;100.00;99480.97;5021691;28;20052;-72
2023/01/18 10:09:40;;;;;;;28.55;15.48;;;;;;;1.02;100.00;99480.09;5008443;28;20170;-72
2023/01/18 10:12:36;;;;;;;30.00;15.55;;;;;;;1.43;100.00;99482.56;5019200;28;20049;-72
2023/01/18 10:15:30;;;;;;;25.17;14.68;;;;;;;1.57;100.00;99489.78;5013479;28;20050;-71
2023/01/18 10:17:59;;;;;;;23.77;13.13;;;;;;;1.74;100.00;99485.41;5005879;28;20053;-72
2023/01/18 10:20:50;;;;;;;28.27;14.05;;;;;;;1.83;100.00;99478.00;5020288;28;20102;-72
2023/01/18 10:23:28;;;;;;;19.60;11.80;;;;;;;1.73;100.00;99482.84;5020812;28;20080;-72
2023/01/18 10:26:21;;;;;;;21.52;10.85;;;;;;;1.66;100.00;99484.94;5025054;28;20699;-72
2023/01/18 10:29:02;;;;;;;;;;;;;;;1.80;100.00;99484.25;5010546;28;20057;-72
2023/01/18 10:31:49;;;;;;;26.05;11.15;;;;;;;1.79;100.00;99482.53;5020938;28;19939;-72
2023/01/18 10:34:20;;;;;;;23.98;10.32;;;;;;;1.62;100.00;99480.75;5003350;28;20124;-72
2023/01/18 10:36:49;;;;;;;19.08;10.15;;;;;;;1.76;100.00;99480.94;4988093;28;20418;-72
2023/01/18 10:39:34;;;;;;;20.98;10.45;;;;;;;1.45;100.00;99478.06;5017103;28;20026;-71
2023/01/18 10:42:05;;;;;;;20.17;11.23;;;;;;;1.56;100.00;99473.19;5020926;28;20060;-72
2023/01/18 10:44:30;;;;;;;23.70;10.85;;;;;;;1.78;100.00;99481.69;5019000;28;20045;-73
2023/01/18 10:46:58;;;;;;;30.20;11.05;;;;;;;1.93;100.00;99476.59;5012406;28;20041;-71
2023/01/18 10:49:45;;;;;;;19.52;10.40;;;;;;;1.83;100.00;99472.75;5024539;28;20041;-71
2023/01/18 10:52:31;;;;;;;21.10;9.27;;;;;;;1.86;100.00;99475.19;5011707;28;20141;-71
2023/01/18 10:55:01;;;;;;;18.45;9.80;;;;;;;1.74;100.00;99488.03;5035910;28;20594;-71
2023/01/18 10:57:34;;;;;;;22.70;10.27;;;;;;;1.91;100.00;99484.59;5025188;28;20037;-72
2023/01/18 11:00:01;;;;;;;23.00;9.85;;;;;;;2.08;100.00;99486.34;5015641;28;20128;-71
2023/01/18 11:02:35;;;;;;;16.42;10.13;;;;;;;1.86;100.00;99491.84;5025489;28;20121;-71
2023/01/18 11:05:24;;;;;;;18.48;9.48;;;;;;;2.17;100.00;99487.69;5021562;28;20606;-71
2023/01/18 11:08:12;;;;;;;23.80;10.95;;;;;;;2.02;100.00;99486.66;5010160;28;20065;-71
2023/01/18 11:10:40;;;;;;;23.95;10.73;;;;;;;2.06;100.00;99486.44;5024470;28;20045;-71
2023/01/18 11:13:43;;;;;;;23.02;10.88;;;;;;;2.01;100.00;99488.44;5024725;28;20030;-71
2023/01/18 11:16:21;;;;;;;19.02;10.77;;;;;;;2.06;100.00;99491.69;5018125;28;20120;-71
2023/01/18 11:19:00;;;;;;;21.27;11.43;;;;;;;2.03;100.00;99493.63;5021383;28;20175;-71
2023/01/18 11:21:39;;;;;;;22.98;12.20;;;;;;;2.39;100.00;99490.91;5024789;28;20048;-71
2023/01/18 11:24:10;;;;;;;18.75;10.65;;;;;;;2.43;100.00;99495.06;5019057;28;20043;-71
2023/01/18 11:27:02;;;;;;;20.90;10.27;;;;;;;2.10;100.00;99491.53;5025044;28;20053;-71
2023/01/18 11:29:31;;;;;;;20.48;9.80;;;;;;;2.15;100.00;99493.00;5011091;28;20048;-71
2023/01/18 11:32:03;;;;;;;26.17;11.27;;;;;;;2.38;100.00;99490.97;5019548;28;20038;-71
2023/01/18 11:34:40;;;;;;;18.27;9.43;;;;;;;2.32;100.00;99493.00;5020062;28;20499;-71
2023/01/18 11:37:28;;;;;;;19.48;9.77;;;;;;;2.55;100.00;99485.69;5009263;28;20073;-71
2023/01/18 11:39:53;;;;;;;19.52;9.90;;;;;;;2.65;100.00;99486.91;4997081;28;20116;-71
2023/01/18 11:42:33;;;;;;;16.55;9.68;;;;;;;2.57;100.00;99489.94;5018024;28;20042;-71
2023/01/18 11:45:39;;;;;;;24.17;10.05;;;;;;;2.71;100.00;99493.63;5019303;28;20033;-71
2023/01/18 11:48:29;;;;;;;19.75;10.40;;;;;;;2.65;100.00;99494.78;5024024;28;20075;-71
2023/01/18 11:51:29;;;;;;;18.17;9.68;;;;;;;2.89;100.00;99497.06;5020442;28;20132;-71
2023/01/18 11:54:04;;;;;;;23.15;10.57;;;;;;;3.10;100.00;99501.16;5023494;28;20133;-70
2023/01/18 11:56:46;;;;;;;17.42;10.25;;;;;;;2.96;100.00;99501.94;5022306;28;20158;-70
2023/01/18 11:59:14;;;;;;;20.30;10.27;;;;;;;2.99;100.00;99504.38;5016396;28;20072;-70